sensor_id;sensor_type;location;lat;lon;timestamp;temperature;humidity
67364;HTU21D;54250;45.572;38.086;2023-07-20T00:02:00;15.88;96.91
67364;HTU21D;54250;45.572;38.086;2023-07-20T00:04:28;15.91;96.81
67364;HTU21D;54250;45.572;38.086;2023-07-20T00:06:54;16.00;96.68
67364;HTU21D;54250;45.572;38.086;2023-07-20T00:09:20;16.00;96.66
67364;HTU21D;54250;45.572;38.086;2023-07-20T00:11:51;15.99;96.77
67364;HTU21D;54250;45.572;38.086;2023-07-20T00:14:17;15.96;96.90
67364;HTU21D;54250;45.572;38.086;2023-07-20T00:16:45;15.96;96.97
67364;HTU21D;54250;45.572;38.086;2023-07-20T00:19:12;15.97;96.95
67364;HTU21D;54250;45.572;38.086;2023-07-20T00:21:38;15.93;96.96
67364;HTU21D;54250;45.572;38.086;2023-07-20T00:24:08;15.87;97.06
67364;HTU21D;54250;45.572;38.086;2023-07-20T00:26:34;15.83;97.17
67364;HTU21D;54250;45.572;38.086;2023-07-20T00:29:00;15.76;97.34
67364;HTU21D;54250;45.572;38.086;2023-07-20T00:31:26;15.75;97.37
67364;HTU21D;54250;45.572;38.086;2023-07-20T00:33:52;15.73;97.41
67364;HTU21D;54250;45.572;38.086;2023-07-20T00:36:18;15.70;97.45
67364;HTU21D;54250;45.572;38.086;2023-07-20T00:38:44;15.66;97.47
67364;HTU21D;54250;45.572;38.086;2023-07-20T00:41:10;15.66;97.48
67364;HTU21D;54250;45.572;38.086;2023-07-20T00:43:36;15.68;97.37
67364;HTU21D;54250;45.572;38.086;2023-07-20T00:46:02;15.69;97.32
67364;HTU21D;54250;45.572;38.086;2023-07-20T00:48:29;15.67;97.28
67364;HTU21D;54250;45.572;38.086;2023-07-20T00:50:57;15.63;97.31
67364;HTU21D;54250;45.572;38.086;2023-07-20T00:53:24;15.56;97.36
67364;HTU21D;54250;45.572;38.086;2023-07-20T00:55:50;15.54;97.44
67364;HTU21D;54250;45.572;38.086;2023-07-20T00:58:16;15.51;97.44
67364;HTU21D;54250;45.572;38.086;2023-07-20T01:00:42;15.47;97.48
67364;HTU21D;54250;45.572;38.086;2023-07-20T01:03:08;15.44;97.56
67364;HTU21D;54250;45.572;38.086;2023-07-20T01:05:40;15.45;97.55
67364;HTU21D;54250;45.572;38.086;2023-07-20T01:08:09;15.37;97.34
67364;HTU21D;54250;45.572;38.086;2023-07-20T01:11:00;15.39;97.21
67364;HTU21D;54250;45.572;38.086;2023-07-20T01:13:26;15.34;97.37
67364;HTU21D;54250;45.572;38.086;2023-07-20T01:15:57;15.33;97.57
67364;HTU21D;54250;45.572;38.086;2023-07-20T01:18:26;15.42;97.50
67364;HTU21D;54250;45.572;38.086;2023-07-20T01:20:59;15.55;97.26
67364;HTU21D;54250;45.572;38.086;2023-07-20T01:31:51;15.68;97.23
67364;HTU21D;54250;45.572;38.086;2023-07-20T01:34:19;15.62;97.48
67364;HTU21D;54250;45.572;38.086;2023-07-20T01:36:48;15.67;97.62
67364;HTU21D;54250;45.572;38.086;2023-07-20T01:39:16;15.72;97.43
67364;HTU21D;54250;45.572;38.086;2023-07-20T01:41:43;15.73;97.43
67364;HTU21D;54250;45.572;38.086;2023-07-20T01:44:08;15.73;97.44
67364;HTU21D;54250;45.572;38.086;2023-07-20T01:46:34;15.72;97.61
67364;HTU21D;54250;45.572;38.086;2023-07-20T01:49:01;15.74;97.53
67364;HTU21D;54250;45.572;38.086;2023-07-20T01:51:26;15.73;97.58
67364;HTU21D;54250;45.572;38.086;2023-07-20T01:53:52;15.77;97.58
67364;HTU21D;54250;45.572;38.086;2023-07-20T01:56:18;15.80;97.50
67364;HTU21D;54250;45.572;38.086;2023-07-20T01:58:44;15.75;97.61
67364;HTU21D;54250;45.572;38.086;2023-07-20T02:01:10;15.72;97.74
67364;HTU21D;54250;45.572;38.086;2023-07-20T02:03:36;15.67;97.81
67364;HTU21D;54250;45.572;38.086;2023-07-20T02:06:02;15.63;97.90
67364;HTU21D;54250;45.572;38.086;2023-07-20T02:08:28;15.65;97.93
67364;HTU21D;54250;45.572;38.086;2023-07-20T02:10:56;15.65;97.85
67364;HTU21D;54250;45.572;38.086;2023-07-20T02:13:22;15.65;97.85
67364;HTU21D;54250;45.572;38.086;2023-07-20T02:15:48;15.67;97.82
67364;HTU21D;54250;45.572;38.086;2023-07-20T02:18:16;15.70;97.76
67364;HTU21D;54250;45.572;38.086;2023-07-20T02:20:42;15.72;97.76
67364;HTU21D;54250;45.572;38.086;2023-07-20T02:23:09;15.75;97.75
67364;HTU21D;54250;45.572;38.086;2023-07-20T02:25:35;15.80;97.70
67364;HTU21D;54250;45.572;38.086;2023-07-20T02:28:01;15.83;97.66
67364;HTU21D;54250;45.572;38.086;2023-07-20T02:30:27;15.91;97.50
67364;HTU21D;54250;45.572;38.086;2023-07-20T02:32:53;15.98;97.45
67364;HTU21D;54250;45.572;38.086;2023-07-20T02:35:19;16.05;97.42
67364;HTU21D;54250;45.572;38.086;2023-07-20T02:37:45;16.13;97.34
67364;HTU21D;54250;45.572;38.086;2023-07-20T02:53:17;17.72;100.51
67364;HTU21D;54250;45.572;38.086;2023-07-20T02:55:43;18.09;99.61
67364;HTU21D;54250;45.572;38.086;2023-07-20T02:58:09;18.51;98.68
67364;HTU21D;54250;45.572;38.086;2023-07-20T03:00:38;19.16;97.20
67364;HTU21D;54250;45.572;38.086;2023-07-20T03:03:04;19.87;95.43
67364;HTU21D;54250;45.572;38.086;2023-07-20T03:05:35;20.51;94.18
67364;HTU21D;54250;45.572;38.086;2023-07-20T03:08:04;21.13;93.26
67364;HTU21D;54250;45.572;38.086;2023-07-20T03:10:32;21.60;92.74
67364;HTU21D;54250;45.572;38.086;2023-07-20T03:12:58;21.80;93.34
67364;HTU21D;54250;45.572;38.086;2023-07-20T03:15:24;22.12;93.40
67364;HTU21D;54250;45.572;38.086;2023-07-20T03:17:50;22.58;92.34
67364;HTU21D;54250;45.572;38.086;2023-07-20T03:20:17;22.95;91.69
67364;HTU21D;54250;45.572;38.086;2023-07-20T03:22:43;23.40;90.66
67364;HTU21D;54250;45.572;38.086;2023-07-20T03:25:09;23.81;89.70
67364;HTU21D;54250;45.572;38.086;2023-07-20T03:27:36;24.13;88.99
67364;HTU21D;54250;45.572;38.086;2023-07-20T03:30:02;24.93;86.77
67364;HTU21D;54250;45.572;38.086;2023-07-20T03:32:28;25.76;84.08
67364;HTU21D;54250;45.572;38.086;2023-07-20T03:34:54;26.30;82.55
67364;HTU21D;54250;45.572;38.086;2023-07-20T03:37:21;26.85;80.94
67364;HTU21D;54250;45.572;38.086;2023-07-20T03:39:47;27.50;78.74
67364;HTU21D;54250;45.572;38.086;2023-07-20T03:42:13;28.32;76.53
67364;HTU21D;54250;45.572;38.086;2023-07-20T03:44:39;29.07;74.25
67364;HTU21D;54250;45.572;38.086;2023-07-20T03:47:07;29.74;72.15
67364;HTU21D;54250;45.572;38.086;2023-07-20T03:49:33;30.27;70.90
67364;HTU21D;54250;45.572;38.086;2023-07-20T03:51:59;30.98;68.81
67364;HTU21D;54250;45.572;38.086;2023-07-20T03:54:25;31.54;67.31
67364;HTU21D;54250;45.572;38.086;2023-07-20T03:56:51;32.01;66.01
67364;HTU21D;54250;45.572;38.086;2023-07-20T03:59:17;32.70;64.19
67364;HTU21D;54250;45.572;38.086;2023-07-20T04:01:42;32.87;61.89
67364;HTU21D;54250;45.572;38.086;2023-07-20T04:04:08;32.90;61.46
67364;HTU21D;54250;45.572;38.086;2023-07-20T04:06:34;33.19;60.41
67364;HTU21D;54250;45.572;38.086;2023-07-20T04:09:00;33.64;59.88
67364;HTU21D;54250;45.572;38.086;2023-07-20T04:11:26;34.36;58.10
67364;HTU21D;54250;45.572;38.086;2023-07-20T04:13:52;34.93;56.52
67364;HTU21D;54250;45.572;38.086;2023-07-20T04:16:18;35.06;55.83
67364;HTU21D;54250;45.572;38.086;2023-07-20T04:18:45;35.22;54.33
67364;HTU21D;54250;45.572;38.086;2023-07-20T04:21:11;35.09;53.55
67364;HTU21D;54250;45.572;38.086;2023-07-20T04:23:37;35.36;53.10
67364;HTU21D;54250;45.572;38.086;2023-07-20T04:26:03;35.89;52.11
67364;HTU21D;54250;45.572;38.086;2023-07-20T04:28:29;36.38;50.16
67364;HTU21D;54250;45.572;38.086;2023-07-20T04:31:10;36.51;48.79
67364;HTU21D;54250;45.572;38.086;2023-07-20T04:33:37;36.39;48.53
67364;HTU21D;54250;45.572;38.086;2023-07-20T04:36:04;36.29;47.99
67364;HTU21D;54250;45.572;38.086;2023-07-20T04:38:33;36.62;47.65
67364;HTU21D;54250;45.572;38.086;2023-07-20T04:41:25;37.03;46.41
67364;HTU21D;54250;45.572;38.086;2023-07-20T04:43:54;37.64;45.57
67364;HTU21D;54250;45.572;38.086;2023-07-20T04:46:27;38.12;44.19
67364;HTU21D;54250;45.572;38.086;2023-07-20T04:48:53;38.06;43.51
67364;HTU21D;54250;45.572;38.086;2023-07-20T04:51:19;37.89;43.14
67364;HTU21D;54250;45.572;38.086;2023-07-20T04:53:49;38.03;42.73
67364;HTU21D;54250;45.572;38.086;2023-07-20T04:56:15;37.87;42.79
67364;HTU21D;54250;45.572;38.086;2023-07-20T04:58:41;38.39;41.98
67364;HTU21D;54250;45.572;38.086;2023-07-20T05:01:08;38.74;40.34
67364;HTU21D;54250;45.572;38.086;2023-07-20T05:03:35;38.74;39.74
67364;HTU21D;54250;45.572;38.086;2023-07-20T05:06:01;38.51;39.39
67364;HTU21D;54250;45.572;38.086;2023-07-20T05:08:27;38.97;38.94
67364;HTU21D;54250;45.572;38.086;2023-07-20T05:10:53;39.00;38.78
67364;HTU21D;54250;45.572;38.086;2023-07-20T05:13:20;39.44;37.50
67364;HTU21D;54250;45.572;38.086;2023-07-20T05:15:46;39.91;37.46
67364;HTU21D;54250;45.572;38.086;2023-07-20T05:18:15;39.80;36.96
67364;HTU21D;54250;45.572;38.086;2023-07-20T05:20:50;39.47;36.55
67364;HTU21D;54250;45.572;38.086;2023-07-20T05:23:17;39.67;37.12
67364;HTU21D;54250;45.572;38.086;2023-07-20T05:25:44;40.19;36.32
67364;HTU21D;54250;45.572;38.086;2023-07-20T05:28:09;40.46;36.14
67364;HTU21D;54250;45.572;38.086;2023-07-20T05:30:35;40.43;35.18
67364;HTU21D;54250;45.572;38.086;2023-07-20T05:33:01;40.01;35.49
67364;HTU21D;54250;45.572;38.086;2023-07-20T05:35:27;39.25;36.10
67364;HTU21D;54250;45.572;38.086;2023-07-20T05:37:53;38.83;36.16
67364;HTU21D;54250;45.572;38.086;2023-07-20T05:40:19;38.73;36.43
67364;HTU21D;54250;45.572;38.086;2023-07-20T05:42:47;39.08;35.88
67364;HTU21D;54250;45.572;38.086;2023-07-20T05:45:14;39.37;35.66
67364;HTU21D;54250;45.572;38.086;2023-07-20T05:47:42;40.00;35.30
67364;HTU21D;54250;45.572;38.086;2023-07-20T05:50:08;40.92;33.88
67364;HTU21D;54250;45.572;38.086;2023-07-20T05:52:34;40.53;33.51
67364;HTU21D;54250;45.572;38.086;2023-07-20T05:55:00;39.87;33.26
67364;HTU21D;54250;45.572;38.086;2023-07-20T05:57:26;39.64;33.87
67364;HTU21D;54250;45.572;38.086;2023-07-20T05:59:52;40.03;33.18
67364;HTU21D;54250;45.572;38.086;2023-07-20T06:02:18;39.99;33.38
67364;HTU21D;54250;45.572;38.086;2023-07-20T06:04:44;39.65;33.68
67364;HTU21D;54250;45.572;38.086;2023-07-20T06:07:10;39.76;33.23
67364;HTU21D;54250;45.572;38.086;2023-07-20T06:09:36;40.45;33.34
67364;HTU21D;54250;45.572;38.086;2023-07-20T06:12:02;40.99;32.69
67364;HTU21D;54250;45.572;38.086;2023-07-20T06:14:28;41.41;32.54
67364;HTU21D;54250;45.572;38.086;2023-07-20T06:16:55;41.84;32.86
67364;HTU21D;54250;45.572;38.086;2023-07-20T06:19:21;42.24;31.52
67364;HTU21D;54250;45.572;38.086;2023-07-20T06:21:48;42.10;31.29
67364;HTU21D;54250;45.572;38.086;2023-07-20T06:24:16;41.34;31.26
67364;HTU21D;54250;45.572;38.086;2023-07-20T06:26:42;41.32;31.59
67364;HTU21D;54250;45.572;38.086;2023-07-20T06:29:08;40.78;30.77
67364;HTU21D;54250;45.572;38.086;2023-07-20T06:31:37;41.30;31.29
67364;HTU21D;54250;45.572;38.086;2023-07-20T06:34:03;42.06;29.97
67364;HTU21D;54250;45.572;38.086;2023-07-20T06:36:29;42.01;29.64
67364;HTU21D;54250;45.572;38.086;2023-07-20T06:38:57;42.03;29.45
67364;HTU21D;54250;45.572;38.086;2023-07-20T06:41:23;41.99;29.06
67364;HTU21D;54250;45.572;38.086;2023-07-20T06:43:50;42.16;30.00
67364;HTU21D;54250;45.572;38.086;2023-07-20T06:46:16;42.72;28.66
67364;HTU21D;54250;45.572;38.086;2023-07-20T06:48:42;42.41;29.26
67364;HTU21D;54250;45.572;38.086;2023-07-20T06:51:07;42.18;29.01
67364;HTU21D;54250;45.572;38.086;2023-07-20T06:53:33;42.17;29.58
67364;HTU21D;54250;45.572;38.086;2023-07-20T06:55:59;43.13;29.45
67364;HTU21D;54250;45.572;38.086;2023-07-20T06:58:25;43.83;28.39
67364;HTU21D;54250;45.572;38.086;2023-07-20T07:00:51;43.64;28.41
67364;HTU21D;54250;45.572;38.086;2023-07-20T07:03:17;43.49;28.78
67364;HTU21D;54250;45.572;38.086;2023-07-20T07:05:43;43.64;28.71
67364;HTU21D;54250;45.572;38.086;2023-07-20T07:08:12;43.47;28.72
67364;HTU21D;54250;45.572;38.086;2023-07-20T07:10:38;43.83;28.27
67364;HTU21D;54250;45.572;38.086;2023-07-20T07:13:04;43.43;28.20
67364;HTU21D;54250;45.572;38.086;2023-07-20T07:15:30;42.91;28.36
67364;HTU21D;54250;45.572;38.086;2023-07-20T07:17:56;42.37;29.45
67364;HTU21D;54250;45.572;38.086;2023-07-20T07:20:22;42.35;29.69
67364;HTU21D;54250;45.572;38.086;2023-07-20T07:22:50;41.95;30.06
67364;HTU21D;54250;45.572;38.086;2023-07-20T07:25:16;42.55;30.06
67364;HTU21D;54250;45.572;38.086;2023-07-20T07:27:42;43.04;28.52
67364;HTU21D;54250;45.572;38.086;2023-07-20T07:30:08;43.24;28.39
67364;HTU21D;54250;45.572;38.086;2023-07-20T07:32:34;43.34;27.92
67364;HTU21D;54250;45.572;38.086;2023-07-20T07:35:00;43.38;28.91
67364;HTU21D;54250;45.572;38.086;2023-07-20T07:37:26;43.40;29.19
67364;HTU21D;54250;45.572;38.086;2023-07-20T07:39:52;43.85;28.68
67364;HTU21D;54250;45.572;38.086;2023-07-20T07:42:18;43.81;27.98
67364;HTU21D;54250;45.572;38.086;2023-07-20T07:44:44;42.97;28.47
67364;HTU21D;54250;45.572;38.086;2023-07-20T07:47:10;43.05;28.39
67364;HTU21D;54250;45.572;38.086;2023-07-20T07:49:36;42.91;28.52
67364;HTU21D;54250;45.572;38.086;2023-07-20T07:52:02;42.28;29.41
67364;HTU21D;54250;45.572;38.086;2023-07-20T07:54:29;42.58;29.12
67364;HTU21D;54250;45.572;38.086;2023-07-20T07:56:55;43.20;27.41
67364;HTU21D;54250;45.572;38.086;2023-07-20T07:59:21;43.24;27.27
67364;HTU21D;54250;45.572;38.086;2023-07-20T08:01:48;43.46;27.09
67364;HTU21D;54250;45.572;38.086;2023-07-20T08:04:13;43.81;27.99
67364;HTU21D;54250;45.572;38.086;2023-07-20T08:06:39;44.65;26.12
67364;HTU21D;54250;45.572;38.086;2023-07-20T08:09:05;44.21;25.78
67364;HTU21D;54250;45.572;38.086;2023-07-20T08:11:32;43.42;26.96
67364;HTU21D;54250;45.572;38.086;2023-07-20T08:14:02;43.51;27.28
67364;HTU21D;54250;45.572;38.086;2023-07-20T08:16:28;43.14;26.49
67364;HTU21D;54250;45.572;38.086;2023-07-20T08:18:54;42.90;26.34
67364;HTU21D;54250;45.572;38.086;2023-07-20T08:21:20;42.73;26.45
67364;HTU21D;54250;45.572;38.086;2023-07-20T08:23:46;42.90;26.62
67364;HTU21D;54250;45.572;38.086;2023-07-20T08:26:12;43.22;26.68
67364;HTU21D;54250;45.572;38.086;2023-07-20T08:28:38;43.73;25.08
67364;HTU21D;54250;45.572;38.086;2023-07-20T08:31:05;43.64;24.21
67364;HTU21D;54250;45.572;38.086;2023-07-20T08:33:32;43.05;25.23
67364;HTU21D;54250;45.572;38.086;2023-07-20T08:36:01;42.82;24.85
67364;HTU21D;54250;45.572;38.086;2023-07-20T08:38:27;43.38;24.71
67364;HTU21D;54250;45.572;38.086;2023-07-20T08:40:53;44.12;24.49
67364;HTU21D;54250;45.572;38.086;2023-07-20T08:43:23;43.81;25.32
67364;HTU21D;54250;45.572;38.086;2023-07-20T08:45:53;43.80;25.00
67364;HTU21D;54250;45.572;38.086;2023-07-20T08:48:21;43.19;24.85
67364;HTU21D;54250;45.572;38.086;2023-07-20T08:50:49;42.92;25.70
67364;HTU21D;54250;45.572;38.086;2023-07-20T08:53:16;41.90;27.03
67364;HTU21D;54250;45.572;38.086;2023-07-20T08:55:45;42.06;26.93
67364;HTU21D;54250;45.572;38.086;2023-07-20T08:58:13;41.96;26.68
67364;HTU21D;54250;45.572;38.086;2023-07-20T09:00:41;41.75;27.19
67364;HTU21D;54250;45.572;38.086;2023-07-20T09:03:07;41.46;27.72
67364;HTU21D;54250;45.572;38.086;2023-07-20T09:05:36;40.78;27.74
67364;HTU21D;54250;45.572;38.086;2023-07-20T09:08:02;40.68;28.15
67364;HTU21D;54250;45.572;38.086;2023-07-20T09:10:30;40.65;28.24
67364;HTU21D;54250;45.572;38.086;2023-07-20T09:12:57;40.36;28.71
67364;HTU21D;54250;45.572;38.086;2023-07-20T09:15:24;40.35;28.88
67364;HTU21D;54250;45.572;38.086;2023-07-20T09:17:50;40.23;28.77
67364;HTU21D;54250;45.572;38.086;2023-07-20T09:20:17;40.07;28.71
67364;HTU21D;54250;45.572;38.086;2023-07-20T09:22:44;39.14;29.61
67364;HTU21D;54250;45.572;38.086;2023-07-20T09:25:15;37.81;31.81
67364;HTU21D;54250;45.572;38.086;2023-07-20T09:27:42;36.62;33.21
67364;HTU21D;54250;45.572;38.086;2023-07-20T09:30:09;35.00;35.34
67364;HTU21D;54250;45.572;38.086;2023-07-20T09:32:41;33.67;37.69
67364;HTU21D;54250;45.572;38.086;2023-07-20T09:35:21;32.79;39.15
67364;HTU21D;54250;45.572;38.086;2023-07-20T09:37:59;32.43;39.51
67364;HTU21D;54250;45.572;38.086;2023-07-20T09:40:26;32.04;40.13
67364;HTU21D;54250;45.572;38.086;2023-07-20T09:42:53;31.74;41.08
67364;HTU21D;54250;45.572;38.086;2023-07-20T09:45:44;31.69;40.97
67364;HTU21D;54250;45.572;38.086;2023-07-20T09:48:11;31.53;41.30
67364;HTU21D;54250;45.572;38.086;2023-07-20T09:50:41;31.52;41.64
67364;HTU21D;54250;45.572;38.086;2023-07-20T09:53:13;31.36;42.35
67364;HTU21D;54250;45.572;38.086;2023-07-20T09:55:40;31.11;42.65
67364;HTU21D;54250;45.572;38.086;2023-07-20T09:58:09;31.01;42.48
67364;HTU21D;54250;45.572;38.086;2023-07-20T10:00:40;30.99;42.20
67364;HTU21D;54250;45.572;38.086;2023-07-20T10:03:10;30.83;42.68
67364;HTU21D;54250;45.572;38.086;2023-07-20T10:05:42;30.65;42.70
67364;HTU21D;54250;45.572;38.086;2023-07-20T10:08:11;30.50;43.10
67364;HTU21D;54250;45.572;38.086;2023-07-20T10:10:41;30.53;43.39
67364;HTU21D;54250;45.572;38.086;2023-07-20T10:13:14;30.64;44.44
67364;HTU21D;54250;45.572;38.086;2023-07-20T10:15:56;30.74;44.16
67364;HTU21D;54250;45.572;38.086;2023-07-20T10:18:51;30.57;43.82
67364;HTU21D;54250;45.572;38.086;2023-07-20T10:21:19;30.63;43.99
67364;HTU21D;54250;45.572;38.086;2023-07-20T10:23:45;30.65;43.26
67364;HTU21D;54250;45.572;38.086;2023-07-20T10:26:11;30.57;43.17
67364;HTU21D;54250;45.572;38.086;2023-07-20T10:28:39;30.59;43.48
67364;HTU21D;54250;45.572;38.086;2023-07-20T10:31:10;30.68;43.16
67364;HTU21D;54250;45.572;38.086;2023-07-20T10:33:37;30.66;43.48
67364;HTU21D;54250;45.572;38.086;2023-07-20T10:36:04;30.69;44.00
67364;HTU21D;54250;45.572;38.086;2023-07-20T10:41:21;30.67;44.28
67364;HTU21D;54250;45.572;38.086;2023-07-20T10:43:50;30.64;43.32
67364;HTU21D;54250;45.572;38.086;2023-07-20T10:49:08;30.46;43.55
67364;HTU21D;54250;45.572;38.086;2023-07-20T10:51:55;30.51;43.67
67364;HTU21D;54250;45.572;38.086;2023-07-20T10:56:55;30.62;43.27
67364;HTU21D;54250;45.572;38.086;2023-07-20T11:01:59;30.75;43.04
67364;HTU21D;54250;45.572;38.086;2023-07-20T11:04:46;30.66;44.19
67364;HTU21D;54250;45.572;38.086;2023-07-20T11:07:36;30.67;43.98
67364;HTU21D;54250;45.572;38.086;2023-07-20T11:10:13;30.75;43.62
67364;HTU21D;54250;45.572;38.086;2023-07-20T11:12:40;30.85;43.86
67364;HTU21D;54250;45.572;38.086;2023-07-20T11:15:07;30.92;42.86
67364;HTU21D;54250;45.572;38.086;2023-07-20T11:17:33;30.86;42.67
67364;HTU21D;54250;45.572;38.086;2023-07-20T11:20:00;30.77;42.72
67364;HTU21D;54250;45.572;38.086;2023-07-20T11:22:27;30.71;43.15
67364;HTU21D;54250;45.572;38.086;2023-07-20T11:24:56;30.79;43.84
67364;HTU21D;54250;45.572;38.086;2023-07-20T11:27:22;30.75;42.84
67364;HTU21D;54250;45.572;38.086;2023-07-20T11:29:48;30.72;42.74
67364;HTU21D;54250;45.572;38.086;2023-07-20T11:32:22;30.77;42.19
67364;HTU21D;54250;45.572;38.086;2023-07-20T11:34:48;30.81;42.70
67364;HTU21D;54250;45.572;38.086;2023-07-20T11:37:15;30.83;43.08
67364;HTU21D;54250;45.572;38.086;2023-07-20T11:39:42;30.81;42.45
67364;HTU21D;54250;45.572;38.086;2023-07-20T11:42:08;30.85;41.95
67364;HTU21D;54250;45.572;38.086;2023-07-20T11:44:34;30.71;42.22
67364;HTU21D;54250;45.572;38.086;2023-07-20T11:47:07;30.64;42.54
67364;HTU21D;54250;45.572;38.086;2023-07-20T11:49:41;30.53;42.57
67364;HTU21D;54250;45.572;38.086;2023-07-20T11:52:09;30.45;42.68
67364;HTU21D;54250;45.572;38.086;2023-07-20T11:54:38;30.48;43.50
67364;HTU21D;54250;45.572;38.086;2023-07-20T11:57:05;30.53;42.16
67364;HTU21D;54250;45.572;38.086;2023-07-20T11:59:31;30.53;41.44
67364;HTU21D;54250;45.572;38.086;2023-07-20T12:02:01;30.46;41.00
67364;HTU21D;54250;45.572;38.086;2023-07-20T12:04:28;30.41;41.29
67364;HTU21D;54250;45.572;38.086;2023-07-20T12:06:54;30.40;41.71
67364;HTU21D;54250;45.572;38.086;2023-07-20T12:09:21;30.37;41.75
67364;HTU21D;54250;45.572;38.086;2023-07-20T12:11:49;30.25;40.68
67364;HTU21D;54250;45.572;38.086;2023-07-20T12:14:15;30.15;41.41
67364;HTU21D;54250;45.572;38.086;2023-07-20T12:16:41;30.11;41.01
67364;HTU21D;54250;45.572;38.086;2023-07-20T12:19:13;30.17;40.68
67364;HTU21D;54250;45.572;38.086;2023-07-20T12:21:41;30.21;41.78
67364;HTU21D;54250;45.572;38.086;2023-07-20T12:24:10;30.12;41.66
67364;HTU21D;54250;45.572;38.086;2023-07-20T12:26:36;30.08;41.33
67364;HTU21D;54250;45.572;38.086;2023-07-20T12:29:02;30.07;41.19
67364;HTU21D;54250;45.572;38.086;2023-07-20T12:31:29;30.04;41.57
67364;HTU21D;54250;45.572;38.086;2023-07-20T12:33:56;30.03;41.68
67364;HTU21D;54250;45.572;38.086;2023-07-20T12:36:23;30.07;42.30
67364;HTU21D;54250;45.572;38.086;2023-07-20T12:38:49;30.11;41.71
67364;HTU21D;54250;45.572;38.086;2023-07-20T12:41:15;30.13;41.89
67364;HTU21D;54250;45.572;38.086;2023-07-20T12:43:41;30.10;42.09
67364;HTU21D;54250;45.572;38.086;2023-07-20T12:46:08;30.07;42.59
67364;HTU21D;54250;45.572;38.086;2023-07-20T12:48:35;30.12;42.23
67364;HTU21D;54250;45.572;38.086;2023-07-20T12:51:03;30.15;42.58
67364;HTU21D;54250;45.572;38.086;2023-07-20T12:53:31;30.10;42.49
67364;HTU21D;54250;45.572;38.086;2023-07-20T12:55:58;30.07;42.35
67364;HTU21D;54250;45.572;38.086;2023-07-20T12:58:24;29.96;41.84
67364;HTU21D;54250;45.572;38.086;2023-07-20T13:00:50;29.92;42.14
67364;HTU21D;54250;45.572;38.086;2023-07-20T13:03:16;29.92;42.09
67364;HTU21D;54250;45.572;38.086;2023-07-20T13:05:44;29.92;42.37
67364;HTU21D;54250;45.572;38.086;2023-07-20T13:08:10;29.89;42.36
67364;HTU21D;54250;45.572;38.086;2023-07-20T13:10:36;29.90;42.91
67364;HTU21D;54250;45.572;38.086;2023-07-20T13:13:04;29.90;42.97
67364;HTU21D;54250;45.572;38.086;2023-07-20T13:15:41;29.90;42.65
67364;HTU21D;54250;45.572;38.086;2023-07-20T13:18:07;29.88;42.30
67364;HTU21D;54250;45.572;38.086;2023-07-20T13:20:33;29.85;42.13
67364;HTU21D;54250;45.572;38.086;2023-07-20T13:23:02;29.83;42.01
67364;HTU21D;54250;45.572;38.086;2023-07-20T13:25:27;29.80;42.34
67364;HTU21D;54250;45.572;38.086;2023-07-20T13:27:54;29.77;41.67
67364;HTU21D;54250;45.572;38.086;2023-07-20T13:30:20;29.73;42.14
67364;HTU21D;54250;45.572;38.086;2023-07-20T13:32:47;29.72;41.74
67364;HTU21D;54250;45.572;38.086;2023-07-20T13:35:13;29.67;42.03
67364;HTU21D;54250;45.572;38.086;2023-07-20T13:37:39;29.65;42.58
67364;HTU21D;54250;45.572;38.086;2023-07-20T13:40:06;29.64;42.97
67364;HTU21D;54250;45.572;38.086;2023-07-20T13:42:37;29.58;42.81
67364;HTU21D;54250;45.572;38.086;2023-07-20T13:45:04;29.53;42.58
67364;HTU21D;54250;45.572;38.086;2023-07-20T13:47:30;29.50;42.87
67364;HTU21D;54250;45.572;38.086;2023-07-20T13:49:56;29.50;43.13
67364;HTU21D;54250;45.572;38.086;2023-07-20T13:52:22;29.50;43.14
67364;HTU21D;54250;45.572;38.086;2023-07-20T13:54:48;29.53;43.21
67364;HTU21D;54250;45.572;38.086;2023-07-20T13:57:14;29.56;43.27
67364;HTU21D;54250;45.572;38.086;2023-07-20T13:59:40;29.52;43.68
67364;HTU21D;54250;45.572;38.086;2023-07-20T14:02:07;29.53;43.67
67364;HTU21D;54250;45.572;38.086;2023-07-20T14:04:33;29.50;43.58
67364;HTU21D;54250;45.572;38.086;2023-07-20T14:06:58;29.46;43.59
67364;HTU21D;54250;45.572;38.086;2023-07-20T14:09:24;29.42;43.29
67364;HTU21D;54250;45.572;38.086;2023-07-20T14:11:50;29.38;43.64
67364;HTU21D;54250;45.572;38.086;2023-07-20T14:14:16;29.32;43.71
67364;HTU21D;54250;45.572;38.086;2023-07-20T14:16:42;29.30;43.61
67364;HTU21D;54250;45.572;38.086;2023-07-20T14:19:08;29.27;43.58
67364;HTU21D;54250;45.572;38.086;2023-07-20T14:21:34;29.22;43.67
67364;HTU21D;54250;45.572;38.086;2023-07-20T14:24:00;29.19;43.95
67364;HTU21D;54250;45.572;38.086;2023-07-20T14:26:26;29.17;44.13
67364;HTU21D;54250;45.572;38.086;2023-07-20T14:28:52;29.14;44.48
67364;HTU21D;54250;45.572;38.086;2023-07-20T14:31:17;29.12;44.29
67364;HTU21D;54250;45.572;38.086;2023-07-20T14:33:45;29.13;44.40
67364;HTU21D;54250;45.572;38.086;2023-07-20T14:36:11;29.08;44.62
67364;HTU21D;54250;45.572;38.086;2023-07-20T14:38:37;29.03;44.35
67364;HTU21D;54250;45.572;38.086;2023-07-20T14:41:03;28.98;44.45
67364;HTU21D;54250;45.572;38.086;2023-07-20T14:43:31;28.94;44.45
67364;HTU21D;54250;45.572;38.086;2023-07-20T14:45:57;28.93;44.62
67364;HTU21D;54250;45.572;38.086;2023-07-20T14:48:24;28.93;44.60
67364;HTU21D;54250;45.572;38.086;2023-07-20T14:50:50;28.90;44.25
67364;HTU21D;54250;45.572;38.086;2023-07-20T14:53:17;28.85;44.12
67364;HTU21D;54250;45.572;38.086;2023-07-20T14:55:43;28.84;44.12
67364;HTU21D;54250;45.572;38.086;2023-07-20T14:58:09;28.83;44.34
67364;HTU21D;54250;45.572;38.086;2023-07-20T15:00:35;28.77;44.42
67364;HTU21D;54250;45.572;38.086;2023-07-20T15:03:01;28.71;44.84
67364;HTU21D;54250;45.572;38.086;2023-07-20T15:05:27;28.65;45.21
67364;HTU21D;54250;45.572;38.086;2023-07-20T15:07:53;28.55;45.47
67364;HTU21D;54250;45.572;38.086;2023-07-20T15:10:19;28.49;45.41
67364;HTU21D;54250;45.572;38.086;2023-07-20T15:12:45;28.48;45.24
67364;HTU21D;54250;45.572;38.086;2023-07-20T15:15:13;28.46;46.03
67364;HTU21D;54250;45.572;38.086;2023-07-20T15:17:41;28.43;45.28
67364;HTU21D;54250;45.572;38.086;2023-07-20T15:20:09;28.39;44.82
67364;HTU21D;54250;45.572;38.086;2023-07-20T15:22:36;28.35;44.49
67364;HTU21D;54250;45.572;38.086;2023-07-20T15:25:02;28.32;44.39
67364;HTU21D;54250;45.572;38.086;2023-07-20T15:27:29;28.27;44.38
67364;HTU21D;54250;45.572;38.086;2023-07-20T15:29:57;28.20;44.52
67364;HTU21D;54250;45.572;38.086;2023-07-20T15:32:23;28.15;44.97
67364;HTU21D;54250;45.572;38.086;2023-07-20T15:34:48;28.08;45.28
67364;HTU21D;54250;45.572;38.086;2023-07-20T15:37:14;28.03;45.98